createdAt,value
2017-08-25T00:02:00.924Z,95207.14
2017-08-25T00:04:29.266Z,95210.06
2017-08-25T00:06:57.606Z,95203.47
2017-08-25T00:09:25.960Z,95197.98
2017-08-25T00:11:54.343Z,95204.25
2017-08-25T00:14:22.691Z,95207.13
2017-08-25T00:16:51.069Z,95209.53
2017-08-25T00:19:19.657Z,95213.87
2017-08-25T00:21:48.192Z,95208.16
2017-08-25T00:24:16.532Z,95207.52
2017-08-25T00:26:44.882Z,95208.77
2017-08-25T00:29:13.250Z,95211.34
2017-08-25T00:31:41.594Z,95209.00
2017-08-25T00:34:09.955Z,95209.39
2017-08-25T00:36:38.296Z,95203.34
2017-08-25T00:39:06.667Z,95206.59
2017-08-25T00:41:35.004Z,95210.09
2017-08-25T00:44:03.352Z,95211.03
2017-08-25T00:46:31.786Z,95203.57
2017-08-25T00:49:00.127Z,95196.81
2017-08-25T00:51:28.501Z,95201.88
2017-08-25T00:53:56.857Z,95200.55
2017-08-25T00:56:25.231Z,95200.48
2017-08-25T00:58:53.565Z,95206.06
2017-08-25T01:01:21.945Z,95200.33
2017-08-25T01:03:50.722Z,95194.58
2017-08-25T01:06:19.071Z,95201.42
2017-08-25T01:08:47.438Z,95205.55
2017-08-25T01:11:15.812Z,95208.31
2017-08-25T01:13:44.155Z,95207.92
2017-08-25T01:16:12.496Z,95207.55
2017-08-25T01:18:40.839Z,95199.24
2017-08-25T01:21:09.180Z,95197.70
2017-08-25T01:23:37.511Z,95201.82
2017-08-25T01:26:05.848Z,95206.00
2017-08-25T01:28:34.192Z,95203.79
2017-08-25T01:31:02.735Z,95203.69
2017-08-25T01:33:31.079Z,95202.73
2017-08-25T01:35:59.419Z,95201.71
2017-08-25T01:38:27.760Z,95201.65
2017-08-25T01:40:56.099Z,95206.28
2017-08-25T01:43:24.442Z,95208.00
2017-08-25T01:45:52.775Z,95205.75
2017-08-25T01:48:21.157Z,95207.78
2017-08-25T01:50:49.520Z,95207.08
2017-08-25T01:53:17.892Z,95202.95
2017-08-25T01:55:46.223Z,95201.03
2017-08-25T01:58:14.684Z,95204.67
2017-08-25T02:00:43.026Z,95208.02
2017-08-25T02:03:11.400Z,95215.77
2017-08-25T02:05:39.743Z,95212.75
2017-08-25T02:08:08.076Z,95213.22
2017-08-25T02:10:36.444Z,95204.93
2017-08-25T02:13:04.787Z,95201.36
2017-08-25T02:15:33.160Z,95199.95
2017-08-25T02:18:01.486Z,95196.77
2017-08-25T02:20:30.642Z,95198.95
2017-08-25T02:22:58.974Z,95205.86
2017-08-25T02:25:27.310Z,95201.98
2017-08-25T02:27:55.674Z,95202.69
2017-08-25T02:30:24.006Z,95205.45
2017-08-25T02:32:52.343Z,95205.55
2017-08-25T02:35:20.675Z,95204.91
2017-08-25T02:37:49.012Z,95203.05
2017-08-25T02:40:17.367Z,95201.34
2017-08-25T02:42:45.703Z,95200.03
2017-08-25T02:45:14.046Z,95201.13
2017-08-25T02:47:42.379Z,95198.42
2017-08-25T02:50:10.718Z,95194.53
2017-08-25T02:52:39.046Z,95198.81
2017-08-25T02:55:07.405Z,95199.36
2017-08-25T02:57:35.766Z,95199.66
2017-08-25T03:00:04.687Z,95204.09
2017-08-25T03:02:33.156Z,95201.59
2017-08-25T03:05:02.098Z,95202.52
2017-08-25T03:07:30.855Z,95201.43
2017-08-25T03:09:59.194Z,95199.34
2017-08-25T03:12:27.558Z,95204.77
2017-08-25T03:14:56.121Z,95201.59
2017-08-25T03:17:25.875Z,95200.82
2017-08-25T03:19:55.281Z,95199.89
2017-08-25T03:22:24.479Z,95195.45
2017-08-25T03:24:53.616Z,95195.39
2017-08-25T03:27:22.585Z,95195.01
2017-08-25T03:29:51.067Z,95194.46
2017-08-25T03:32:19.394Z,95200.44
2017-08-25T03:34:47.758Z,95201.44
2017-08-25T03:37:16.090Z,95201.66
2017-08-25T03:39:44.446Z,95201.05
2017-08-25T03:42:12.778Z,95195.62
2017-08-25T03:44:41.134Z,95205.93
2017-08-25T03:47:09.481Z,95204.00
2017-08-25T03:49:37.806Z,95205.93
2017-08-25T03:52:06.140Z,95203.39
2017-08-25T03:54:34.474Z,95205.48
2017-08-25T03:57:03.332Z,95206.80
2017-08-25T03:59:31.934Z,95215.09
2017-08-25T04:02:00.783Z,95209.34
2017-08-25T04:04:29.444Z,95214.70
2017-08-25T04:06:59.086Z,95205.22
2017-08-25T04:09:27.420Z,95204.77
2017-08-25T04:11:55.778Z,95200.89
2017-08-25T04:14:24.222Z,95202.59
2017-08-25T04:16:52.558Z,95205.70
2017-08-25T04:19:20.890Z,95215.63
2017-08-25T04:21:49.218Z,95212.61
2017-08-25T04:24:17.554Z,95215.37
2017-08-25T04:26:45.890Z,95205.77
2017-08-25T04:29:14.227Z,95216.63
2017-08-25T04:31:42.562Z,95215.80
2017-08-25T04:34:10.894Z,95212.74
2017-08-25T04:36:39.242Z,95210.27
2017-08-25T04:39:07.588Z,95218.40
2017-08-25T04:41:35.923Z,95214.00
2017-08-25T04:44:04.304Z,95216.70
2017-08-25T04:46:32.630Z,95219.88
2017-08-25T04:49:00.971Z,95226.47
2017-08-25T04:51:29.322Z,95221.36
2017-08-25T04:53:57.687Z,95221.03
2017-08-25T04:56:26.054Z,95223.45
2017-08-25T04:58:54.391Z,95222.83
2017-08-25T05:01:22.715Z,95226.69
2017-08-25T05:03:51.079Z,95223.61
2017-08-25T05:06:19.435Z,95223.83
2017-08-25T05:08:47.769Z,95225.76
2017-08-25T05:11:16.106Z,95227.84
2017-08-25T05:13:44.446Z,95229.80
2017-08-25T05:16:12.786Z,95227.02
2017-08-25T05:18:41.163Z,95231.73
2017-08-25T05:21:09.488Z,95228.71
2017-08-25T05:23:37.851Z,95230.64
2017-08-25T05:26:06.182Z,95234.69
2017-08-25T05:28:34.527Z,95243.53
2017-08-25T05:31:02.868Z,95243.63
2017-08-25T05:33:31.202Z,95240.83
2017-08-25T05:35:59.531Z,95238.56
2017-08-25T05:38:27.958Z,95239.73
2017-08-25T05:40:56.295Z,95237.25
2017-08-25T05:43:24.654Z,95238.08
2017-08-25T05:45:53.391Z,95231.44
2017-08-25T05:48:21.762Z,95219.77
2017-08-25T05:50:50.111Z,95223.37
2017-08-25T05:53:18.442Z,95225.06
2017-08-25T05:55:46.786Z,95231.70
2017-08-25T05:58:15.114Z,95225.19
2017-08-25T06:00:43.455Z,95220.95
2017-08-25T06:03:11.810Z,95227.77
2017-08-25T06:05:40.146Z,95231.41
2017-08-25T06:08:08.477Z,95227.70
2017-08-25T06:10:37.262Z,95233.47
2017-08-25T06:13:05.604Z,95235.62
2017-08-25T06:15:33.954Z,95222.89
2017-08-25T06:18:02.290Z,95224.23
2017-08-25T06:20:30.625Z,95231.20
2017-08-25T06:22:58.955Z,95227.09
2017-08-25T06:25:27.291Z,95223.45
2017-08-25T06:27:55.634Z,95223.27
2017-08-25T06:30:23.971Z,95228.63
2017-08-25T06:32:52.326Z,95218.59
2017-08-25T06:35:20.664Z,95219.59
2017-08-25T06:37:49.023Z,95231.14
2017-08-25T06:40:17.354Z,95229.95
2017-08-25T06:42:45.682Z,95239.97
2017-08-25T06:45:14.023Z,95241.83
2017-08-25T06:47:42.350Z,95243.67
2017-08-25T06:50:10.686Z,95238.73
2017-08-25T06:52:39.018Z,95244.34
2017-08-25T06:55:07.390Z,95238.09
2017-08-25T06:57:35.726Z,95244.50
2017-08-25T07:00:04.071Z,95232.80
2017-08-25T07:02:32.734Z,95231.84
2017-08-25T07:05:01.062Z,95226.69
2017-08-25T07:07:29.474Z,95225.38
2017-08-25T07:09:57.865Z,95222.02
2017-08-25T07:12:26.202Z,95217.75
2017-08-25T07:14:54.531Z,95230.02
2017-08-25T07:17:22.863Z,95236.20
2017-08-25T07:19:51.198Z,95240.50
2017-08-25T07:22:19.543Z,95246.73
2017-08-25T07:24:47.879Z,95240.44
2017-08-25T07:27:16.238Z,95244.65
2017-08-25T07:29:44.571Z,95243.56
2017-08-25T07:32:12.904Z,95249.28
2017-08-25T07:34:41.243Z,95253.91
2017-08-25T07:37:09.573Z,95262.30
2017-08-25T07:39:37.939Z,95268.91
2017-08-25T07:42:06.282Z,95268.05
2017-08-25T07:44:34.615Z,95275.94
2017-08-25T07:47:03.926Z,95272.97
2017-08-25T07:49:32.266Z,95274.16
2017-08-25T07:52:00.635Z,95271.47
2017-08-25T07:54:28.962Z,95272.38
2017-08-25T07:56:57.294Z,95280.66
2017-08-25T07:59:25.659Z,95279.01
2017-08-25T08:01:53.994Z,95281.02
2017-08-25T08:04:22.322Z,95279.80
2017-08-25T08:06:50.706Z,95284.59
2017-08-25T08:09:19.048Z,95282.45
2017-08-25T08:11:47.402Z,95289.96
2017-08-25T08:14:15.746Z,95291.29
2017-08-25T08:16:44.077Z,95289.91
2017-08-25T08:19:12.414Z,95288.41
2017-08-25T08:21:40.750Z,95281.96
2017-08-25T08:24:09.095Z,95281.98
2017-08-25T08:26:37.454Z,95279.56
2017-08-25T08:29:05.799Z,95281.80
2017-08-25T08:31:34.282Z,95286.22
2017-08-25T08:34:02.853Z,95286.39
2017-08-25T08:36:36.865Z,95285.44
2017-08-25T08:39:05.635Z,95287.20
2017-08-25T08:41:33.970Z,95288.50
2017-08-25T08:44:02.314Z,95291.03
2017-08-25T08:46:30.650Z,95293.56
2017-08-25T08:48:59.016Z,95288.30
2017-08-25T08:51:27.358Z,95286.34
2017-08-25T08:53:55.698Z,95291.83
2017-08-25T08:56:24.346Z,95292.44
2017-08-25T08:58:52.692Z,95291.33
2017-08-25T09:01:21.054Z,95288.16
2017-08-25T09:03:49.394Z,95293.17
2017-08-25T09:06:23.361Z,95290.94
2017-08-25T09:08:51.834Z,95290.99
2017-08-25T09:11:20.170Z,95287.00
2017-08-25T09:13:49.387Z,95283.41
2017-08-25T09:16:17.843Z,95285.25
2017-08-25T09:18:46.174Z,95284.56
2017-08-25T09:21:14.582Z,95289.22
2017-08-25T09:23:42.983Z,95288.34
2017-08-25T09:26:11.327Z,95283.44
2017-08-25T09:28:39.773Z,95282.84
2017-08-25T09:31:08.098Z,95281.81
2017-08-25T09:33:36.438Z,95274.04
2017-08-25T09:36:04.786Z,95277.97
2017-08-25T09:38:33.134Z,95275.61
2017-08-25T09:41:01.474Z,95272.41
2017-08-25T09:43:29.842Z,95267.95
2017-08-25T09:45:58.182Z,95273.80
2017-08-25T09:48:26.546Z,95272.25
2017-08-25T09:50:54.874Z,95269.69
2017-08-25T09:53:23.210Z,95280.38
2017-08-25T09:55:51.550Z,95269.38
2017-08-25T09:58:19.891Z,95275.87
2017-08-25T10:00:48.230Z,95273.93
2017-08-25T10:03:16.559Z,95278.28
2017-08-25T10:05:44.895Z,95280.92
2017-08-25T10:08:13.222Z,95282.64
2017-08-25T10:10:41.553Z,95274.87
2017-08-25T10:13:09.914Z,95272.56
2017-08-25T10:15:38.250Z,95274.21
2017-08-25T10:18:06.595Z,95270.71
2017-08-25T10:20:34.942Z,95272.61
2017-08-25T10:23:03.306Z,95276.28
2017-08-25T10:25:31.635Z,95268.31
2017-08-25T10:28:00.013Z,95265.53
2017-08-25T10:30:28.594Z,95264.72
2017-08-25T10:32:56.958Z,95261.75
2017-08-25T10:35:36.993Z,95254.63
2017-08-25T10:38:17.254Z,95255.36
2017-08-25T10:40:57.503Z,95250.38
2017-08-25T10:43:37.490Z,95249.23
2017-08-25T10:46:05.823Z,95248.32
2017-08-25T10:48:34.214Z,95250.29
2017-08-25T10:51:03.110Z,95245.25
2017-08-25T10:53:31.595Z,95253.59
2017-08-25T10:55:59.954Z,95251.66
2017-08-25T10:58:28.573Z,95254.14
2017-08-25T11:00:57.191Z,95254.23
2017-08-25T11:03:25.530Z,95247.31
2017-08-25T11:05:53.862Z,95246.34
2017-08-25T11:08:22.199Z,95246.00
2017-08-25T11:10:50.529Z,95245.06
2017-08-25T11:13:18.907Z,95240.67
2017-08-25T11:15:47.319Z,95238.41
2017-08-25T11:18:15.655Z,95237.70
2017-08-25T11:20:43.982Z,95240.94
2017-08-25T11:23:12.315Z,95236.27
2017-08-25T11:25:40.742Z,95235.72
2017-08-25T11:28:09.072Z,95234.45
2017-08-25T11:30:37.410Z,95236.56
2017-08-25T11:33:05.766Z,95237.44
2017-08-25T11:35:34.106Z,95230.81
2017-08-25T11:38:02.478Z,95239.70
2017-08-25T11:40:30.853Z,95235.19
2017-08-25T11:42:59.188Z,95240.34
2017-08-25T11:45:27.526Z,95246.69
2017-08-25T11:47:55.859Z,95244.23
2017-08-25T11:50:24.192Z,95240.92
2017-08-25T11:52:52.522Z,95235.48
2017-08-25T11:55:20.855Z,95230.94
2017-08-25T11:57:49.219Z,95226.97
2017-08-25T12:00:17.563Z,95228.05
2017-08-25T12:02:45.896Z,95227.00
2017-08-25T12:05:14.230Z,95227.04
2017-08-25T12:07:42.574Z,95221.59
2017-08-25T12:10:10.942Z,95222.63
2017-08-25T12:12:39.297Z,95219.16
2017-08-25T12:15:07.628Z,95218.55
2017-08-25T12:17:37.294Z,95217.25
2017-08-25T12:20:07.097Z,95213.70
2017-08-25T12:22:35.422Z,95210.37
2017-08-25T12:25:03.754Z,95208.48
2017-08-25T12:27:32.328Z,95209.10
2017-08-25T12:30:00.729Z,95217.23
2017-08-25T12:32:29.070Z,95224.19
2017-08-25T12:34:57.405Z,95225.19
2017-08-25T12:37:25.766Z,95226.77
2017-08-25T12:39:54.111Z,95224.61
2017-08-25T12:42:22.463Z,95226.82
2017-08-25T12:44:50.955Z,95226.14
2017-08-25T12:47:19.314Z,95229.18
2017-08-25T12:49:47.646Z,95232.88
2017-08-25T12:52:15.981Z,95224.86
2017-08-25T12:54:44.352Z,95226.84
2017-08-25T12:57:12.695Z,95226.38
2017-08-25T12:59:41.028Z,95231.45
2017-08-25T13:02:09.366Z,95234.94
2017-08-25T13:04:37.740Z,95233.91
2017-08-25T13:07:06.082Z,95226.15
2017-08-25T13:09:34.411Z,95228.56
2017-08-25T13:12:02.886Z,95234.87
2017-08-25T13:14:31.225Z,95237.86
2017-08-25T13:16:59.559Z,95233.05
2017-08-25T13:19:27.887Z,95233.06
2017-08-25T13:21:56.243Z,95229.73
2017-08-25T13:24:24.574Z,95222.82
2017-08-25T13:26:52.922Z,95217.77
2017-08-25T13:29:21.268Z,95219.98
2017-08-25T13:31:49.598Z,95222.14
2017-08-25T13:34:17.930Z,95214.75
2017-08-25T13:36:46.258Z,95214.97
2017-08-25T13:39:14.614Z,95212.95
2017-08-25T13:41:42.945Z,95217.30
2017-08-25T13:44:11.274Z,95216.14
2017-08-25T13:46:39.611Z,95208.60
2017-08-25T13:49:07.967Z,95209.64
2017-08-25T13:51:36.303Z,95202.42
2017-08-25T13:54:04.635Z,95203.72
2017-08-25T13:56:32.966Z,95200.72
2017-08-25T13:59:01.302Z,95196.98
2017-08-25T14:01:29.659Z,95196.55
2017-08-25T14:03:57.995Z,95194.70
2017-08-25T14:06:26.331Z,95196.86
2017-08-25T14:08:54.662Z,95193.98
2017-08-25T14:11:22.999Z,95184.72
2017-08-25T14:13:51.366Z,95175.58
2017-08-25T14:16:19.698Z,95179.25
2017-08-25T14:18:48.039Z,95174.25
2017-08-25T14:21:16.377Z,95180.31
2017-08-25T14:23:44.702Z,95179.26
2017-08-25T14:26:13.068Z,95177.17
2017-08-25T14:28:41.399Z,95179.25
2017-08-25T14:31:09.729Z,95180.64
2017-08-25T14:33:38.057Z,95175.69
2017-08-25T14:36:06.390Z,95177.81
2017-08-25T14:38:34.730Z,95174.20
2017-08-25T14:41:03.227Z,95176.30
2017-08-25T14:43:31.565Z,95164.24
2017-08-25T14:45:59.894Z,95167.17
2017-08-25T14:48:28.230Z,95160.74
2017-08-25T14:50:56.566Z,95158.28
2017-08-25T14:53:24.898Z,95156.42
2017-08-25T14:55:53.242Z,95157.32
2017-08-25T14:58:21.883Z,95156.53
2017-08-25T15:00:50.218Z,95153.91
2017-08-25T15:03:18.793Z,95151.41
2017-08-25T15:05:47.365Z,95152.89
2017-08-25T15:08:15.968Z,95152.73
2017-08-25T15:10:44.361Z,95153.05
2017-08-25T15:13:12.768Z,95154.45
2017-08-25T15:15:41.180Z,95145.80
2017-08-25T15:18:09.499Z,95145.41
2017-08-25T15:20:37.838Z,95149.30
2017-08-25T15:23:06.168Z,95147.13
2017-08-25T15:25:34.498Z,95144.72
2017-08-25T15:28:02.835Z,95144.77
2017-08-25T15:30:31.170Z,95147.94
2017-08-25T15:32:59.502Z,95142.15
2017-08-25T15:35:27.848Z,95135.72
2017-08-25T15:37:56.183Z,95128.36
2017-08-25T15:40:24.555Z,95124.33
2017-08-25T15:42:52.930Z,95129.41
2017-08-25T15:45:21.304Z,95134.19
2017-08-25T15:47:49.678Z,95133.27
2017-08-25T15:50:18.034Z,95117.89
2017-08-25T15:52:46.366Z,95123.31
2017-08-25T15:55:14.699Z,95124.25
2017-08-25T15:57:43.031Z,95117.83
2017-08-25T16:00:11.398Z,95124.80
2017-08-25T16:02:40.082Z,95125.61
2017-08-25T16:05:08.466Z,95117.65
2017-08-25T16:07:36.812Z,95123.45
2017-08-25T16:10:06.230Z,95113.17
2017-08-25T16:12:34.570Z,95105.40
2017-08-25T16:15:02.930Z,95119.37
2017-08-25T16:17:31.262Z,95123.98
2017-08-25T16:19:59.606Z,95127.23
2017-08-25T16:22:27.940Z,95125.03
2017-08-25T16:24:56.270Z,95129.13
2017-08-25T16:27:24.606Z,95129.57
2017-08-25T16:29:52.983Z,95124.92
2017-08-25T16:32:22.700Z,95134.05
2017-08-25T16:34:51.638Z,95123.97
2017-08-25T16:37:19.972Z,95118.55
2017-08-25T16:39:48.586Z,95120.15
2017-08-25T16:42:18.488Z,95113.19
2017-08-25T16:44:46.899Z,95113.41
2017-08-25T16:47:15.234Z,95110.19
2017-08-25T16:49:43.641Z,95090.14
2017-08-25T16:52:11.994Z,95101.55
2017-08-25T16:54:40.352Z,95094.05
2017-08-25T16:57:08.790Z,95084.33
2017-08-25T16:59:37.129Z,95084.89
2017-08-25T17:02:05.471Z,95088.16
2017-08-25T17:04:33.955Z,95088.59
2017-08-25T17:07:02.458Z,95095.78
2017-08-25T17:09:30.822Z,95102.72
2017-08-25T17:11:59.159Z,95100.25
2017-08-25T17:14:27.495Z,95106.00
2017-08-25T17:16:55.862Z,95114.84
2017-08-25T17:19:24.231Z,95104.95
2017-08-25T17:21:52.595Z,95108.16
2017-08-25T17:24:20.951Z,95109.95
2017-08-25T17:26:49.331Z,95113.97
2017-08-25T17:29:17.674Z,95117.38
2017-08-25T17:31:46.010Z,95112.76
2017-08-25T17:34:14.382Z,95116.64
2017-08-25T17:36:42.723Z,95126.36
2017-08-25T17:39:11.068Z,95120.78
2017-08-25T17:41:39.447Z,95124.64
2017-08-25T17:44:07.790Z,95127.15
2017-08-25T17:46:36.126Z,95128.67
2017-08-25T17:49:04.493Z,95130.20
2017-08-25T17:51:32.826Z,95121.16
2017-08-25T17:54:01.169Z,95123.71
2017-08-25T17:56:29.534Z,95124.24
2017-08-25T17:58:57.944Z,95123.70
2017-08-25T18:01:26.286Z,95125.02
2017-08-25T18:03:54.648Z,95129.50
2017-08-25T18:06:23.018Z,95123.20
2017-08-25T18:08:51.399Z,95122.55
2017-08-25T18:11:20.002Z,95118.66
2017-08-25T18:13:48.342Z,95114.13
2017-08-25T18:16:16.699Z,95115.87
2017-08-25T18:18:45.071Z,95111.91
2017-08-25T18:21:13.419Z,95113.66
2017-08-25T18:23:41.758Z,95114.87
2017-08-25T18:26:10.102Z,95123.19
2017-08-25T18:28:38.438Z,95125.99
2017-08-25T18:31:06.778Z,95114.13
2017-08-25T18:33:35.122Z,95113.30
2017-08-25T18:36:03.454Z,95105.70
2017-08-25T18:38:31.835Z,95092.36
2017-08-25T18:41:00.309Z,95092.70
2017-08-25T18:43:28.654Z,95101.58
2017-08-25T18:45:56.993Z,95101.83
2017-08-25T18:48:25.347Z,95116.55
2017-08-25T18:50:53.721Z,95111.04
2017-08-25T18:53:22.101Z,95111.55
2017-08-25T18:55:50.447Z,95113.72
2017-08-25T18:58:18.830Z,95115.99
2017-08-25T19:00:47.183Z,95120.91
2017-08-25T19:03:15.526Z,95128.52
2017-08-25T19:05:43.910Z,95132.38
2017-08-25T19:08:12.274Z,95138.63
2017-08-25T19:10:40.623Z,95142.68
2017-08-25T19:13:08.956Z,95126.84
2017-08-25T19:15:37.295Z,95126.77
2017-08-25T19:18:05.632Z,95138.95
2017-08-25T19:20:33.994Z,95134.05
2017-08-25T19:23:02.330Z,95131.59
2017-08-25T19:25:30.667Z,95130.97
2017-08-25T19:27:59.004Z,95130.80
2017-08-25T19:30:27.366Z,95129.83
2017-08-25T19:32:56.495Z,95132.36
2017-08-25T19:35:24.827Z,95135.51
2017-08-25T19:37:53.170Z,95135.47
2017-08-25T19:40:21.585Z,95132.73
2017-08-25T19:42:49.953Z,95128.05
2017-08-25T19:45:18.340Z,95134.69
2017-08-25T19:47:46.672Z,95134.19
2017-08-25T19:50:15.003Z,95137.05
2017-08-25T19:52:43.343Z,95127.61
2017-08-25T19:55:11.679Z,95128.84
2017-08-25T19:57:40.003Z,95131.86
2017-08-25T20:00:08.686Z,95131.30
2017-08-25T20:02:37.048Z,95136.13
2017-08-25T20:05:05.384Z,95129.59
2017-08-25T20:07:33.734Z,95129.64
2017-08-25T20:10:02.062Z,95129.94
2017-08-25T20:12:30.394Z,95134.12
2017-08-25T20:14:58.734Z,95133.91
2017-08-25T20:17:27.086Z,95138.75
2017-08-25T20:19:55.418Z,95141.47
2017-08-25T20:22:24.329Z,95140.56
2017-08-25T20:24:53.663Z,95140.31
2017-08-25T20:27:22.018Z,95145.16
2017-08-25T20:29:50.374Z,95145.69
2017-08-25T20:32:18.744Z,95142.69
2017-08-25T20:34:47.078Z,95134.21
2017-08-25T20:37:15.411Z,95138.34
2017-08-25T20:39:43.750Z,95140.36
2017-08-25T20:42:12.082Z,95138.92
2017-08-25T20:44:40.419Z,95145.80
2017-08-25T20:47:08.755Z,95148.25
2017-08-25T20:49:37.322Z,95143.49
2017-08-25T20:52:05.657Z,95151.19
2017-08-25T20:54:33.988Z,95136.95
2017-08-25T20:57:02.316Z,95135.48
2017-08-25T20:59:30.646Z,95126.23
2017-08-25T21:01:58.986Z,95131.83
2017-08-25T21:04:27.314Z,95133.47
2017-08-25T21:06:55.650Z,95138.09
2017-08-25T21:09:23.986Z,95137.72
2017-08-25T21:11:52.314Z,95137.19
2017-08-25T21:14:20.647Z,95135.18
2017-08-25T21:16:48.991Z,95133.30
2017-08-25T21:19:17.323Z,95127.61
2017-08-25T21:21:45.655Z,95136.44
2017-08-25T21:24:13.998Z,95135.18
2017-08-25T21:26:42.358Z,95133.42
2017-08-25T21:29:10.686Z,95129.59
2017-08-25T21:31:39.016Z,95125.52
2017-08-25T21:34:07.346Z,95127.95
2017-08-25T21:36:35.691Z,95122.91
2017-08-25T21:39:04.545Z,95120.06
2017-08-25T21:41:32.910Z,95120.17
2017-08-25T21:44:01.237Z,95117.28
2017-08-25T21:46:29.682Z,95109.79
2017-08-25T21:48:58.014Z,95109.87
2017-08-25T21:51:26.346Z,95106.03
2017-08-25T21:53:54.690Z,95101.50
2017-08-25T21:56:23.010Z,95106.12
2017-08-25T21:58:51.348Z,95097.55
2017-08-25T22:01:19.675Z,95099.01
2017-08-25T22:03:48.007Z,95106.03
2017-08-25T22:06:16.346Z,95108.89
2017-08-25T22:08:44.682Z,95102.72
2017-08-25T22:11:13.015Z,95084.56
2017-08-25T22:13:41.354Z,95084.63
2017-08-25T22:16:09.679Z,95089.34
2017-08-25T22:18:38.010Z,95091.75
2017-08-25T22:21:06.342Z,95090.91
2017-08-25T22:23:34.675Z,95091.02
2017-08-25T22:26:03.187Z,95086.59
2017-08-25T22:28:31.515Z,95091.02
2017-08-25T22:30:59.862Z,95087.49
2017-08-25T22:33:28.186Z,95079.91
2017-08-25T22:35:56.518Z,95072.48
2017-08-25T22:38:24.850Z,95078.46
2017-08-25T22:40:53.214Z,95079.44
2017-08-25T22:43:21.577Z,95079.05
2017-08-25T22:45:49.911Z,95082.82
2017-08-25T22:48:18.239Z,95078.27
2017-08-25T22:50:46.594Z,95076.86
2017-08-25T22:53:14.937Z,95077.30
2017-08-25T22:55:43.305Z,95070.77
2017-08-25T22:58:12.491Z,95066.72
2017-08-25T23:00:41.651Z,95064.52
2017-08-25T23:03:10.016Z,95074.23
2017-08-25T23:05:38.347Z,95076.83
2017-08-25T23:08:06.698Z,95071.67
2017-08-25T23:10:35.058Z,95062.16
2017-08-25T23:13:03.396Z,95064.55
2017-08-25T23:15:31.845Z,95071.41
2017-08-25T23:18:00.184Z,95068.66
2017-08-25T23:20:28.878Z,95072.83
2017-08-25T23:22:57.241Z,95076.92
2017-08-25T23:25:25.574Z,95081.62
2017-08-25T23:27:53.906Z,95071.68
2017-08-25T23:30:22.269Z,95068.86
2017-08-25T23:32:50.612Z,95066.14
2017-08-25T23:35:18.966Z,95060.38
2017-08-25T23:37:47.295Z,95064.23
2017-08-25T23:40:15.634Z,95060.45
2017-08-25T23:42:43.976Z,95061.12
2017-08-25T23:45:12.303Z,95073.77
2017-08-25T23:47:40.634Z,95081.44
2017-08-25T23:50:08.968Z,95089.83
2017-08-25T23:52:37.294Z,95082.53
2017-08-25T23:55:05.630Z,95076.02
2017-08-25T23:57:34.122Z,95082.55
